sensor_id;sensor_type;location;lat;lon;timestamp;P1;durP1;ratioP1;P2;durP2;ratioP2
36817;SDS011;22761;51.542;16.450;2023-07-02T00:00:12;5.00;;;3.90;;
36817;SDS011;22761;51.542;16.450;2023-07-02T00:03:01;5.80;;;3.90;;
36817;SDS011;22761;51.542;16.450;2023-07-02T00:05:30;6.40;;;3.90;;
36817;SDS011;22761;51.542;16.450;2023-07-02T00:07:58;7.30;;;4.00;;
36817;SDS011;22761;51.542;16.450;2023-07-02T00:10:27;5.60;;;3.70;;
36817;SDS011;22761;51.542;16.450;2023-07-02T00:12:55;9.50;;;4.20;;
36817;SDS011;22761;51.542;16.450;2023-07-02T00:15:24;5.30;;;3.60;;
36817;SDS011;22761;51.542;16.450;2023-07-02T00:17:52;6.00;;;3.40;;
36817;SDS011;22761;51.542;16.450;2023-07-02T00:20:20;4.90;;;3.40;;
36817;SDS011;22761;51.542;16.450;2023-07-02T00:22:49;9.80;;;3.80;;
36817;SDS011;22761;51.542;16.450;2023-07-02T00:25:17;4.00;;;3.20;;
36817;SDS011;22761;51.542;16.450;2023-07-02T00:27:46;6.10;;;3.10;;
36817;SDS011;22761;51.542;16.450;2023-07-02T00:30:14;5.60;;;3.60;;
36817;SDS011;22761;51.542;16.450;2023-07-02T00:32:42;5.80;;;3.60;;
36817;SDS011;22761;51.542;16.450;2023-07-02T00:35:12;5.40;;;3.30;;
36817;SDS011;22761;51.542;16.450;2023-07-02T00:37:41;5.60;;;3.40;;
36817;SDS011;22761;51.542;16.450;2023-07-02T00:40:09;4.50;;;3.50;;
36817;SDS011;22761;51.542;16.450;2023-07-02T00:42:38;4.20;;;3.40;;
36817;SDS011;22761;51.542;16.450;2023-07-02T00:45:07;4.80;;;3.70;;
36817;SDS011;22761;51.542;16.450;2023-07-02T00:50:05;6.50;;;3.30;;
36817;SDS011;22761;51.542;16.450;2023-07-02T00:52:34;2.90;;;2.10;;
36817;SDS011;22761;51.542;16.450;2023-07-02T00:55:03;3.60;;;2.10;;
36817;SDS011;22761;51.542;16.450;2023-07-02T00:57:32;3.70;;;1.70;;
36817;SDS011;22761;51.542;16.450;2023-07-02T01:00:01;4.90;;;2.10;;
36817;SDS011;22761;51.542;16.450;2023-07-02T01:02:31;4.80;;;1.80;;
36817;SDS011;22761;51.542;16.450;2023-07-02T01:05:00;3.60;;;1.80;;
36817;SDS011;22761;51.542;16.450;2023-07-02T01:07:29;2.00;;;1.50;;
36817;SDS011;22761;51.542;16.450;2023-07-02T01:09:58;3.20;;;1.70;;
36817;SDS011;22761;51.542;16.450;2023-07-02T01:12:26;3.40;;;1.70;;
36817;SDS011;22761;51.542;16.450;2023-07-02T01:14:56;3.50;;;1.50;;
36817;SDS011;22761;51.542;16.450;2023-07-02T01:17:27;3.60;;;1.50;;
36817;SDS011;22761;51.542;16.450;2023-07-02T01:20:05;2.30;;;1.60;;
36817;SDS011;22761;51.542;16.450;2023-07-02T01:22:36;2.30;;;1.30;;
36817;SDS011;22761;51.542;16.450;2023-07-02T01:25:05;3.30;;;1.60;;
36817;SDS011;22761;51.542;16.450;2023-07-02T01:27:36;3.90;;;1.50;;
36817;SDS011;22761;51.542;16.450;2023-07-02T01:30:06;3.40;;;1.50;;
36817;SDS011;22761;51.542;16.450;2023-07-02T01:32:36;1.90;;;1.10;;
36817;SDS011;22761;51.542;16.450;2023-07-02T01:35:07;2.10;;;1.50;;
36817;SDS011;22761;51.542;16.450;2023-07-02T01:37:37;1.60;;;1.50;;
36817;SDS011;22761;51.542;16.450;2023-07-02T01:40:06;3.30;;;1.20;;
36817;SDS011;22761;51.542;16.450;2023-07-02T01:42:36;2.80;;;1.50;;
36817;SDS011;22761;51.542;16.450;2023-07-02T01:45:08;1.30;;;1.00;;
36817;SDS011;22761;51.542;16.450;2023-07-02T01:47:37;2.60;;;1.20;;
36817;SDS011;22761;51.542;16.450;2023-07-02T01:50:10;3.90;;;1.10;;
36817;SDS011;22761;51.542;16.450;2023-07-02T01:52:40;1.90;;;1.00;;
36817;SDS011;22761;51.542;16.450;2023-07-02T01:55:09;3.30;;;1.20;;
36817;SDS011;22761;51.542;16.450;2023-07-02T01:57:38;2.60;;;1.20;;
36817;SDS011;22761;51.542;16.450;2023-07-02T02:00:06;2.60;;;1.20;;
36817;SDS011;22761;51.542;16.450;2023-07-02T02:02:42;2.30;;;1.10;;
36817;SDS011;22761;51.542;16.450;2023-07-02T02:05:11;3.00;;;1.30;;
36817;SDS011;22761;51.542;16.450;2023-07-02T02:07:40;1.30;;;1.00;;
36817;SDS011;22761;51.542;16.450;2023-07-02T02:10:09;2.30;;;1.00;;
36817;SDS011;22761;51.542;16.450;2023-07-02T02:12:38;2.30;;;1.40;;
36817;SDS011;22761;51.542;16.450;2023-07-02T02:15:07;1.70;;;1.10;;
36817;SDS011;22761;51.542;16.450;2023-07-02T02:17:36;2.10;;;1.00;;
36817;SDS011;22761;51.542;16.450;2023-07-02T02:20:05;3.10;;;1.20;;
36817;SDS011;22761;51.542;16.450;2023-07-02T02:22:36;3.40;;;1.40;;
36817;SDS011;22761;51.542;16.450;2023-07-02T02:25:05;2.70;;;1.20;;
36817;SDS011;22761;51.542;16.450;2023-07-02T02:27:34;1.40;;;1.20;;
36817;SDS011;22761;51.542;16.450;2023-07-02T02:30:03;3.70;;;1.20;;
36817;SDS011;22761;51.542;16.450;2023-07-02T02:32:33;1.90;;;1.30;;
36817;SDS011;22761;51.542;16.450;2023-07-02T02:35:02;3.00;;;1.30;;
36817;SDS011;22761;51.542;16.450;2023-07-02T02:37:33;2.50;;;1.30;;
36817;SDS011;22761;51.542;16.450;2023-07-02T02:40:03;2.60;;;1.40;;
36817;SDS011;22761;51.542;16.450;2023-07-02T02:42:33;2.60;;;1.30;;
36817;SDS011;22761;51.542;16.450;2023-07-02T02:45:02;3.30;;;1.40;;
36817;SDS011;22761;51.542;16.450;2023-07-02T02:47:31;2.40;;;1.40;;
36817;SDS011;22761;51.542;16.450;2023-07-02T02:50:00;2.20;;;1.30;;
36817;SDS011;22761;51.542;16.450;2023-07-02T02:52:29;5.20;;;1.50;;
36817;SDS011;22761;51.542;16.450;2023-07-02T02:54:57;2.20;;;1.30;;
36817;SDS011;22761;51.542;16.450;2023-07-02T02:57:26;1.30;;;1.10;;
36817;SDS011;22761;51.542;16.450;2023-07-02T02:59:54;1.80;;;1.40;;
36817;SDS011;22761;51.542;16.450;2023-07-02T03:02:25;1.30;;;1.10;;
36817;SDS011;22761;51.542;16.450;2023-07-02T03:04:54;1.00;;;0.80;;
36817;SDS011;22761;51.542;16.450;2023-07-02T03:07:25;1.90;;;1.50;;
36817;SDS011;22761;51.542;16.450;2023-07-02T03:09:53;2.10;;;1.10;;
36817;SDS011;22761;51.542;16.450;2023-07-02T03:12:22;3.30;;;1.60;;
36817;SDS011;22761;51.542;16.450;2023-07-02T03:14:54;2.00;;;1.30;;
36817;SDS011;22761;51.542;16.450;2023-07-02T03:17:23;4.70;;;1.40;;
36817;SDS011;22761;51.542;16.450;2023-07-02T03:19:52;1.70;;;1.10;;
36817;SDS011;22761;51.542;16.450;2023-07-02T03:22:20;1.30;;;1.00;;
36817;SDS011;22761;51.542;16.450;2023-07-02T03:24:49;2.10;;;1.20;;
36817;SDS011;22761;51.542;16.450;2023-07-02T03:27:17;1.70;;;1.20;;
36817;SDS011;22761;51.542;16.450;2023-07-02T03:29:46;1.60;;;1.10;;
36817;SDS011;22761;51.542;16.450;2023-07-02T03:32:15;1.80;;;1.10;;
36817;SDS011;22761;51.542;16.450;2023-07-02T03:34:43;2.80;;;1.30;;
36817;SDS011;22761;51.542;16.450;2023-07-02T03:37:12;1.40;;;0.90;;
36817;SDS011;22761;51.542;16.450;2023-07-02T03:39:40;2.50;;;1.30;;
36817;SDS011;22761;51.542;16.450;2023-07-02T03:42:09;3.80;;;1.10;;
36817;SDS011;22761;51.542;16.450;2023-07-02T03:44:38;1.70;;;1.20;;
36817;SDS011;22761;51.542;16.450;2023-07-02T03:47:06;2.00;;;1.20;;
36817;SDS011;22761;51.542;16.450;2023-07-02T03:49:36;1.70;;;1.30;;
36817;SDS011;22761;51.542;16.450;2023-07-02T03:52:04;1.40;;;1.20;;
36817;SDS011;22761;51.542;16.450;2023-07-02T03:54:33;1.50;;;1.30;;
36817;SDS011;22761;51.542;16.450;2023-07-02T03:57:02;1.30;;;1.20;;
36817;SDS011;22761;51.542;16.450;2023-07-02T03:59:30;3.40;;;1.50;;
36817;SDS011;22761;51.542;16.450;2023-07-02T04:01:59;2.50;;;1.40;;
36817;SDS011;22761;51.542;16.450;2023-07-02T04:04:27;2.70;;;1.30;;
36817;SDS011;22761;51.542;16.450;2023-07-02T04:06:56;1.90;;;1.40;;
36817;SDS011;22761;51.542;16.450;2023-07-02T04:09:25;3.40;;;1.20;;
36817;SDS011;22761;51.542;16.450;2023-07-02T04:11:53;1.70;;;1.20;;
36817;SDS011;22761;51.542;16.450;2023-07-02T04:14:21;1.90;;;1.20;;
36817;SDS011;22761;51.542;16.450;2023-07-02T04:16:50;2.30;;;1.20;;
36817;SDS011;22761;51.542;16.450;2023-07-02T04:19:18;2.50;;;1.20;;
36817;SDS011;22761;51.542;16.450;2023-07-02T04:21:47;1.80;;;1.10;;
36817;SDS011;22761;51.542;16.450;2023-07-02T04:24:16;2.10;;;1.30;;
36817;SDS011;22761;51.542;16.450;2023-07-02T04:26:45;2.20;;;1.30;;
36817;SDS011;22761;51.542;16.450;2023-07-02T04:29:33;2.50;;;1.00;;
36817;SDS011;22761;51.542;16.450;2023-07-02T04:32:02;3.50;;;1.30;;
36817;SDS011;22761;51.542;16.450;2023-07-02T04:34:31;1.80;;;1.00;;
36817;SDS011;22761;51.542;16.450;2023-07-02T04:36:59;1.70;;;1.30;;
36817;SDS011;22761;51.542;16.450;2023-07-02T04:39:27;1.90;;;1.20;;
36817;SDS011;22761;51.542;16.450;2023-07-02T04:41:56;3.90;;;1.20;;
36817;SDS011;22761;51.542;16.450;2023-07-02T04:44:24;2.10;;;1.40;;
36817;SDS011;22761;51.542;16.450;2023-07-02T04:46:58;2.10;;;1.50;;
36817;SDS011;22761;51.542;16.450;2023-07-02T04:49:27;2.80;;;1.30;;
36817;SDS011;22761;51.542;16.450;2023-07-02T04:51:55;1.40;;;1.20;;
36817;SDS011;22761;51.542;16.450;2023-07-02T04:54:24;1.90;;;1.30;;
36817;SDS011;22761;51.542;16.450;2023-07-02T04:56:52;1.80;;;1.10;;
36817;SDS011;22761;51.542;16.450;2023-07-02T04:59:21;3.90;;;1.50;;
36817;SDS011;22761;51.542;16.450;2023-07-02T05:01:49;2.20;;;1.50;;
36817;SDS011;22761;51.542;16.450;2023-07-02T05:04:18;1.20;;;1.10;;
36817;SDS011;22761;51.542;16.450;2023-07-02T05:06:46;2.70;;;1.40;;
36817;SDS011;22761;51.542;16.450;2023-07-02T05:09:15;2.50;;;1.40;;
36817;SDS011;22761;51.542;16.450;2023-07-02T05:11:43;2.40;;;1.40;;
36817;SDS011;22761;51.542;16.450;2023-07-02T05:14:11;2.30;;;1.30;;
36817;SDS011;22761;51.542;16.450;2023-07-02T05:16:40;1.60;;;1.20;;
36817;SDS011;22761;51.542;16.450;2023-07-02T05:19:08;1.50;;;1.20;;
36817;SDS011;22761;51.542;16.450;2023-07-02T05:21:37;2.20;;;1.40;;
36817;SDS011;22761;51.542;16.450;2023-07-02T05:24:05;2.60;;;1.40;;
36817;SDS011;22761;51.542;16.450;2023-07-02T05:26:34;1.60;;;1.30;;
36817;SDS011;22761;51.542;16.450;2023-07-02T05:29:03;3.60;;;1.40;;
36817;SDS011;22761;51.542;16.450;2023-07-02T05:31:33;3.00;;;1.30;;
36817;SDS011;22761;51.542;16.450;2023-07-02T05:34:02;2.80;;;1.40;;
36817;SDS011;22761;51.542;16.450;2023-07-02T05:36:30;2.40;;;1.20;;
36817;SDS011;22761;51.542;16.450;2023-07-02T05:38:59;3.60;;;1.60;;
36817;SDS011;22761;51.542;16.450;2023-07-02T05:41:27;1.80;;;1.40;;
36817;SDS011;22761;51.542;16.450;2023-07-02T05:43:59;2.90;;;1.40;;
36817;SDS011;22761;51.542;16.450;2023-07-02T05:46:27;1.80;;;1.50;;
36817;SDS011;22761;51.542;16.450;2023-07-02T05:48:56;1.50;;;1.30;;
36817;SDS011;22761;51.542;16.450;2023-07-02T05:51:25;3.40;;;1.50;;
36817;SDS011;22761;51.542;16.450;2023-07-02T05:53:53;1.50;;;1.30;;
36817;SDS011;22761;51.542;16.450;2023-07-02T05:56:22;3.10;;;1.30;;
36817;SDS011;22761;51.542;16.450;2023-07-02T05:58:50;1.90;;;1.70;;
36817;SDS011;22761;51.542;16.450;2023-07-02T06:01:19;1.50;;;1.40;;
36817;SDS011;22761;51.542;16.450;2023-07-02T06:03:48;2.40;;;1.40;;
36817;SDS011;22761;51.542;16.450;2023-07-02T06:06:18;2.00;;;1.70;;
36817;SDS011;22761;51.542;16.450;2023-07-02T06:08:46;2.00;;;1.40;;
36817;SDS011;22761;51.542;16.450;2023-07-02T06:11:15;2.80;;;1.40;;
36817;SDS011;22761;51.542;16.450;2023-07-02T06:13:43;1.60;;;1.40;;
36817;SDS011;22761;51.542;16.450;2023-07-02T06:16:11;1.80;;;1.50;;
36817;SDS011;22761;51.542;16.450;2023-07-02T06:18:40;2.10;;;1.30;;
36817;SDS011;22761;51.542;16.450;2023-07-02T06:21:09;1.80;;;1.40;;
36817;SDS011;22761;51.542;16.450;2023-07-02T06:23:41;2.60;;;1.30;;
36817;SDS011;22761;51.542;16.450;2023-07-02T06:26:12;3.70;;;1.40;;
36817;SDS011;22761;51.542;16.450;2023-07-02T06:28:40;2.30;;;1.20;;
36817;SDS011;22761;51.542;16.450;2023-07-02T06:31:09;2.10;;;1.60;;
36817;SDS011;22761;51.542;16.450;2023-07-02T06:33:39;1.90;;;1.20;;
36817;SDS011;22761;51.542;16.450;2023-07-02T06:36:08;1.70;;;1.40;;
36817;SDS011;22761;51.542;16.450;2023-07-02T06:38:40;1.90;;;1.30;;
36817;SDS011;22761;51.542;16.450;2023-07-02T06:41:08;2.50;;;1.20;;
36817;SDS011;22761;51.542;16.450;2023-07-02T06:43:37;1.40;;;1.30;;
36817;SDS011;22761;51.542;16.450;2023-07-02T06:46:06;2.40;;;1.40;;
36817;SDS011;22761;51.542;16.450;2023-07-02T06:48:34;3.50;;;1.80;;
36817;SDS011;22761;51.542;16.450;2023-07-02T06:51:02;2.10;;;1.50;;
36817;SDS011;22761;51.542;16.450;2023-07-02T06:53:31;2.10;;;1.50;;
36817;SDS011;22761;51.542;16.450;2023-07-02T06:55:59;2.20;;;1.40;;
36817;SDS011;22761;51.542;16.450;2023-07-02T06:58:28;1.90;;;1.40;;
36817;SDS011;22761;51.542;16.450;2023-07-02T07:00:56;8.80;;;1.80;;
36817;SDS011;22761;51.542;16.450;2023-07-02T07:03:24;2.30;;;1.60;;
36817;SDS011;22761;51.542;16.450;2023-07-02T07:05:53;2.70;;;1.30;;
36817;SDS011;22761;51.542;16.450;2023-07-02T07:08:22;1.60;;;1.50;;
36817;SDS011;22761;51.542;16.450;2023-07-02T07:10:50;4.20;;;1.60;;
36817;SDS011;22761;51.542;16.450;2023-07-02T07:13:19;1.70;;;1.50;;
36817;SDS011;22761;51.542;16.450;2023-07-02T07:15:47;2.10;;;1.60;;
36817;SDS011;22761;51.542;16.450;2023-07-02T07:18:16;2.20;;;1.90;;
36817;SDS011;22761;51.542;16.450;2023-07-02T07:20:47;2.30;;;1.50;;
36817;SDS011;22761;51.542;16.450;2023-07-02T07:23:16;1.70;;;1.60;;
36817;SDS011;22761;51.542;16.450;2023-07-02T07:25:45;1.90;;;1.50;;
36817;SDS011;22761;51.542;16.450;2023-07-02T07:28:14;2.00;;;1.50;;
36817;SDS011;22761;51.542;16.450;2023-07-02T07:30:43;2.70;;;1.80;;
36817;SDS011;22761;51.542;16.450;2023-07-02T07:33:12;2.00;;;1.50;;
36817;SDS011;22761;51.542;16.450;2023-07-02T07:35:40;1.90;;;1.60;;
36817;SDS011;22761;51.542;16.450;2023-07-02T07:38:09;2.10;;;1.90;;
36817;SDS011;22761;51.542;16.450;2023-07-02T07:40:37;2.10;;;1.70;;
36817;SDS011;22761;51.542;16.450;2023-07-02T07:43:05;1.80;;;1.60;;
36817;SDS011;22761;51.542;16.450;2023-07-02T07:45:34;2.40;;;1.50;;
36817;SDS011;22761;51.542;16.450;2023-07-02T07:48:03;2.20;;;1.80;;
36817;SDS011;22761;51.542;16.450;2023-07-02T07:50:34;1.70;;;1.40;;
36817;SDS011;22761;51.542;16.450;2023-07-02T07:53:02;2.40;;;1.60;;
36817;SDS011;22761;51.542;16.450;2023-07-02T07:55:31;1.80;;;1.60;;
36817;SDS011;22761;51.542;16.450;2023-07-02T07:57:59;1.60;;;1.40;;
36817;SDS011;22761;51.542;16.450;2023-07-02T08:00:27;1.90;;;1.70;;
36817;SDS011;22761;51.542;16.450;2023-07-02T08:02:56;2.40;;;1.60;;
36817;SDS011;22761;51.542;16.450;2023-07-02T08:05:25;1.70;;;1.60;;
36817;SDS011;22761;51.542;16.450;2023-07-02T08:07:54;2.40;;;1.60;;
36817;SDS011;22761;51.542;16.450;2023-07-02T08:10:22;1.60;;;1.40;;
36817;SDS011;22761;51.542;16.450;2023-07-02T08:12:51;5.50;;;1.50;;
36817;SDS011;22761;51.542;16.450;2023-07-02T08:15:20;1.90;;;1.70;;
36817;SDS011;22761;51.542;16.450;2023-07-02T08:17:49;1.70;;;1.50;;
36817;SDS011;22761;51.542;16.450;2023-07-02T08:20:22;1.50;;;1.40;;
36817;SDS011;22761;51.542;16.450;2023-07-02T08:22:51;1.50;;;1.40;;
36817;SDS011;22761;51.542;16.450;2023-07-02T08:25:20;2.20;;;1.80;;
36817;SDS011;22761;51.542;16.450;2023-07-02T08:27:50;3.80;;;1.60;;
36817;SDS011;22761;51.542;16.450;2023-07-02T08:30:19;1.70;;;1.50;;
36817;SDS011;22761;51.542;16.450;2023-07-02T08:32:47;1.70;;;1.40;;
36817;SDS011;22761;51.542;16.450;2023-07-02T08:35:16;2.50;;;1.60;;
36817;SDS011;22761;51.542;16.450;2023-07-02T08:37:45;2.00;;;1.60;;
36817;SDS011;22761;51.542;16.450;2023-07-02T08:40:20;3.40;;;1.40;;
36817;SDS011;22761;51.542;16.450;2023-07-02T08:42:49;4.20;;;1.80;;
36817;SDS011;22761;51.542;16.450;2023-07-02T08:45:17;2.70;;;1.50;;
36817;SDS011;22761;51.542;16.450;2023-07-02T08:47:46;1.60;;;1.30;;
36817;SDS011;22761;51.542;16.450;2023-07-02T08:50:14;2.30;;;1.70;;
36817;SDS011;22761;51.542;16.450;2023-07-02T08:52:43;2.60;;;1.50;;
36817;SDS011;22761;51.542;16.450;2023-07-02T08:55:13;2.70;;;1.50;;
36817;SDS011;22761;51.542;16.450;2023-07-02T08:57:47;1.70;;;1.30;;
36817;SDS011;22761;51.542;16.450;2023-07-02T09:00:20;2.20;;;1.40;;
36817;SDS011;22761;51.542;16.450;2023-07-02T09:02:49;2.90;;;1.80;;
36817;SDS011;22761;51.542;16.450;2023-07-02T09:05:18;3.30;;;1.40;;
36817;SDS011;22761;51.542;16.450;2023-07-02T09:07:49;2.40;;;1.40;;
36817;SDS011;22761;51.542;16.450;2023-07-02T09:10:25;1.90;;;1.30;;
36817;SDS011;22761;51.542;16.450;2023-07-02T09:13:03;3.30;;;1.40;;
36817;SDS011;22761;51.542;16.450;2023-07-02T09:15:39;1.90;;;1.50;;
36817;SDS011;22761;51.542;16.450;2023-07-02T09:18:16;2.00;;;1.20;;
36817;SDS011;22761;51.542;16.450;2023-07-02T09:20:45;1.90;;;1.40;;
36817;SDS011;22761;51.542;16.450;2023-07-02T09:23:14;1.80;;;1.30;;
36817;SDS011;22761;51.542;16.450;2023-07-02T09:25:42;1.80;;;1.20;;
36817;SDS011;22761;51.542;16.450;2023-07-02T09:28:15;2.90;;;1.50;;
36817;SDS011;22761;51.542;16.450;2023-07-02T09:30:53;2.10;;;1.20;;
36817;SDS011;22761;51.542;16.450;2023-07-02T09:33:25;2.60;;;1.90;;
36817;SDS011;22761;51.542;16.450;2023-07-02T09:35:55;3.90;;;1.40;;
36817;SDS011;22761;51.542;16.450;2023-07-02T09:38:23;2.70;;;1.40;;
36817;SDS011;22761;51.542;16.450;2023-07-02T09:40:52;1.80;;;1.30;;
36817;SDS011;22761;51.542;16.450;2023-07-02T09:43:21;1.60;;;1.40;;
36817;SDS011;22761;51.542;16.450;2023-07-02T09:45:50;3.40;;;1.60;;
36817;SDS011;22761;51.542;16.450;2023-07-02T09:48:21;1.60;;;1.30;;
36817;SDS011;22761;51.542;16.450;2023-07-02T09:50:53;5.40;;;1.80;;
36817;SDS011;22761;51.542;16.450;2023-07-02T09:53:22;4.00;;;1.60;;
36817;SDS011;22761;51.542;16.450;2023-07-02T09:55:50;1.40;;;1.30;;
36817;SDS011;22761;51.542;16.450;2023-07-02T09:58:19;1.60;;;1.40;;
36817;SDS011;22761;51.542;16.450;2023-07-02T10:00:47;2.50;;;1.20;;
36817;SDS011;22761;51.542;16.450;2023-07-02T10:03:16;3.40;;;1.50;;
36817;SDS011;22761;51.542;16.450;2023-07-02T10:05:45;1.20;;;1.10;;
36817;SDS011;22761;51.542;16.450;2023-07-02T10:08:14;1.80;;;1.20;;
36817;SDS011;22761;51.542;16.450;2023-07-02T10:10:46;3.10;;;1.50;;
36817;SDS011;22761;51.542;16.450;2023-07-02T10:13:25;2.10;;;1.60;;
36817;SDS011;22761;51.542;16.450;2023-07-02T10:16:01;1.30;;;1.20;;
36817;SDS011;22761;51.542;16.450;2023-07-02T10:18:30;4.00;;;1.40;;
36817;SDS011;22761;51.542;16.450;2023-07-02T10:20:59;3.20;;;1.50;;
36817;SDS011;22761;51.542;16.450;2023-07-02T10:23:34;2.30;;;1.50;;
36817;SDS011;22761;51.542;16.450;2023-07-02T10:26:09;1.80;;;1.40;;
36817;SDS011;22761;51.542;16.450;2023-07-02T10:28:57;1.70;;;1.20;;
36817;SDS011;22761;51.542;16.450;2023-07-02T10:31:26;2.10;;;1.30;;
36817;SDS011;22761;51.542;16.450;2023-07-02T10:33:55;4.50;;;1.40;;
36817;SDS011;22761;51.542;16.450;2023-07-02T10:36:24;1.60;;;1.20;;
36817;SDS011;22761;51.542;16.450;2023-07-02T10:38:53;2.00;;;1.40;;
36817;SDS011;22761;51.542;16.450;2023-07-02T10:44:05;2.40;;;1.60;;
36817;SDS011;22761;51.542;16.450;2023-07-02T10:46:46;2.60;;;1.20;;
36817;SDS011;22761;51.542;16.450;2023-07-02T10:49:16;1.40;;;1.10;;
36817;SDS011;22761;51.542;16.450;2023-07-02T10:51:56;1.60;;;1.10;;
36817;SDS011;22761;51.542;16.450;2023-07-02T10:54:39;1.10;;;1.00;;
36817;SDS011;22761;51.542;16.450;2023-07-02T10:57:14;2.30;;;1.20;;
36817;SDS011;22761;51.542;16.450;2023-07-02T10:59:44;1.30;;;1.00;;
36817;SDS011;22761;51.542;16.450;2023-07-02T11:02:12;2.70;;;1.10;;
36817;SDS011;22761;51.542;16.450;2023-07-02T11:04:41;1.30;;;1.00;;
36817;SDS011;22761;51.542;16.450;2023-07-02T11:07:10;2.80;;;1.20;;
36817;SDS011;22761;51.542;16.450;2023-07-02T11:09:49;3.10;;;1.20;;
36817;SDS011;22761;51.542;16.450;2023-07-02T11:12:22;2.60;;;1.10;;
36817;SDS011;22761;51.542;16.450;2023-07-02T11:15:08;1.20;;;0.80;;
36817;SDS011;22761;51.542;16.450;2023-07-02T11:17:40;2.50;;;1.20;;
36817;SDS011;22761;51.542;16.450;2023-07-02T11:20:11;2.40;;;1.20;;
36817;SDS011;22761;51.542;16.450;2023-07-02T11:22:40;3.20;;;1.00;;
36817;SDS011;22761;51.542;16.450;2023-07-02T11:27:41;1.40;;;0.90;;
36817;SDS011;22761;51.542;16.450;2023-07-02T11:30:10;2.70;;;1.30;;
36817;SDS011;22761;51.542;16.450;2023-07-02T11:35:20;2.40;;;1.10;;
36817;SDS011;22761;51.542;16.450;2023-07-02T11:37:50;3.60;;;1.40;;
36817;SDS011;22761;51.542;16.450;2023-07-02T11:40:18;2.10;;;1.20;;
36817;SDS011;22761;51.542;16.450;2023-07-02T11:42:48;3.00;;;1.20;;
36817;SDS011;22761;51.542;16.450;2023-07-02T11:45:16;2.20;;;1.30;;
36817;SDS011;22761;51.542;16.450;2023-07-02T11:47:45;2.40;;;1.00;;
36817;SDS011;22761;51.542;16.450;2023-07-02T11:50:13;7.90;;;1.20;;
36817;SDS011;22761;51.542;16.450;2023-07-02T11:52:53;1.70;;;1.40;;
36817;SDS011;22761;51.542;16.450;2023-07-02T11:55:22;5.60;;;1.60;;
36817;SDS011;22761;51.542;16.450;2023-07-02T11:57:50;1.60;;;1.10;;
36817;SDS011;22761;51.542;16.450;2023-07-02T12:00:19;1.10;;;1.00;;
36817;SDS011;22761;51.542;16.450;2023-07-02T12:02:48;1.30;;;0.90;;
36817;SDS011;22761;51.542;16.450;2023-07-02T12:07:44;1.50;;;1.10;;
36817;SDS011;22761;51.542;16.450;2023-07-02T12:10:13;3.40;;;1.30;;
36817;SDS011;22761;51.542;16.450;2023-07-02T12:12:41;1.40;;;0.90;;
36817;SDS011;22761;51.542;16.450;2023-07-02T12:15:09;2.10;;;1.20;;
36817;SDS011;22761;51.542;16.450;2023-07-02T12:17:38;1.80;;;1.20;;
36817;SDS011;22761;51.542;16.450;2023-07-02T12:20:07;2.60;;;1.40;;
36817;SDS011;22761;51.542;16.450;2023-07-02T12:22:35;3.30;;;1.50;;
36817;SDS011;22761;51.542;16.450;2023-07-02T12:25:04;3.20;;;1.50;;
36817;SDS011;22761;51.542;16.450;2023-07-02T12:27:34;2.70;;;1.20;;
36817;SDS011;22761;51.542;16.450;2023-07-02T12:30:02;4.30;;;1.10;;
36817;SDS011;22761;51.542;16.450;2023-07-02T12:32:31;3.40;;;1.30;;
36817;SDS011;22761;51.542;16.450;2023-07-02T12:35:00;3.30;;;1.50;;
36817;SDS011;22761;51.542;16.450;2023-07-02T12:39:57;5.00;;;1.90;;
36817;SDS011;22761;51.542;16.450;2023-07-02T12:42:25;4.60;;;1.40;;
36817;SDS011;22761;51.542;16.450;2023-07-02T12:44:54;2.90;;;1.30;;
36817;SDS011;22761;51.542;16.450;2023-07-02T12:47:22;8.00;;;1.50;;
36817;SDS011;22761;51.542;16.450;2023-07-02T12:49:51;1.80;;;1.50;;
36817;SDS011;22761;51.542;16.450;2023-07-02T12:52:20;3.30;;;1.40;;
36817;SDS011;22761;51.542;16.450;2023-07-02T12:54:48;3.70;;;2.00;;
36817;SDS011;22761;51.542;16.450;2023-07-02T12:57:17;6.80;;;1.80;;
36817;SDS011;22761;51.542;16.450;2023-07-02T12:59:47;2.80;;;1.90;;
36817;SDS011;22761;51.542;16.450;2023-07-02T13:02:15;5.00;;;1.90;;
36817;SDS011;22761;51.542;16.450;2023-07-02T13:04:44;3.60;;;2.00;;
36817;SDS011;22761;51.542;16.450;2023-07-02T13:07:12;4.20;;;1.60;;
36817;SDS011;22761;51.542;16.450;2023-07-02T13:09:41;5.70;;;3.10;;
36817;SDS011;22761;51.542;16.450;2023-07-02T13:12:12;5.80;;;1.60;;
36817;SDS011;22761;51.542;16.450;2023-07-02T13:14:40;3.20;;;1.70;;
36817;SDS011;22761;51.542;16.450;2023-07-02T13:17:09;2.20;;;1.50;;
36817;SDS011;22761;51.542;16.450;2023-07-02T13:19:37;4.10;;;1.40;;
36817;SDS011;22761;51.542;16.450;2023-07-02T13:22:05;5.30;;;1.70;;
36817;SDS011;22761;51.542;16.450;2023-07-02T13:24:34;10.00;;;1.60;;
36817;SDS011;22761;51.542;16.450;2023-07-02T13:27:07;5.10;;;1.80;;
36817;SDS011;22761;51.542;16.450;2023-07-02T13:29:38;3.20;;;1.70;;
36817;SDS011;22761;51.542;16.450;2023-07-02T13:32:07;2.20;;;1.50;;
36817;SDS011;22761;51.542;16.450;2023-07-02T13:34:35;2.70;;;1.70;;
36817;SDS011;22761;51.542;16.450;2023-07-02T13:37:04;3.40;;;1.50;;
36817;SDS011;22761;51.542;16.450;2023-07-02T13:39:33;8.90;;;1.60;;
36817;SDS011;22761;51.542;16.450;2023-07-02T13:42:01;6.40;;;1.40;;
36817;SDS011;22761;51.542;16.450;2023-07-02T13:44:29;2.50;;;1.40;;
36817;SDS011;22761;51.542;16.450;2023-07-02T13:46:58;3.10;;;1.70;;
36817;SDS011;22761;51.542;16.450;2023-07-02T13:49:27;4.10;;;1.60;;
36817;SDS011;22761;51.542;16.450;2023-07-02T13:51:55;5.30;;;2.00;;
36817;SDS011;22761;51.542;16.450;2023-07-02T13:54:24;6.10;;;1.60;;
36817;SDS011;22761;51.542;16.450;2023-07-02T13:56:52;2.80;;;1.70;;
36817;SDS011;22761;51.542;16.450;2023-07-02T13:59:21;4.50;;;1.60;;
36817;SDS011;22761;51.542;16.450;2023-07-02T14:01:49;4.00;;;1.50;;
36817;SDS011;22761;51.542;16.450;2023-07-02T14:04:18;4.10;;;1.60;;
36817;SDS011;22761;51.542;16.450;2023-07-02T14:06:47;2.10;;;1.50;;
36817;SDS011;22761;51.542;16.450;2023-07-02T14:09:15;1.90;;;1.40;;
36817;SDS011;22761;51.542;16.450;2023-07-02T14:11:44;1.70;;;1.60;;
36817;SDS011;22761;51.542;16.450;2023-07-02T14:14:12;2.90;;;1.50;;
36817;SDS011;22761;51.542;16.450;2023-07-02T14:16:40;4.40;;;1.50;;
36817;SDS011;22761;51.542;16.450;2023-07-02T14:19:09;4.60;;;1.80;;
36817;SDS011;22761;51.542;16.450;2023-07-02T14:21:37;1.90;;;1.60;;
36817;SDS011;22761;51.542;16.450;2023-07-02T14:24:06;2.40;;;1.40;;
36817;SDS011;22761;51.542;16.450;2023-07-02T14:26:34;1.60;;;1.50;;
36817;SDS011;22761;51.542;16.450;2023-07-02T14:29:03;2.70;;;1.50;;
36817;SDS011;22761;51.542;16.450;2023-07-02T14:31:31;9.90;;;1.80;;
36817;SDS011;22761;51.542;16.450;2023-07-02T14:33:59;2.20;;;1.40;;
36817;SDS011;22761;51.542;16.450;2023-07-02T14:36:28;3.10;;;1.60;;
36817;SDS011;22761;51.542;16.450;2023-07-02T14:38:56;3.40;;;1.50;;
36817;SDS011;22761;51.542;16.450;2023-07-02T14:41:24;4.00;;;1.80;;
36817;SDS011;22761;51.542;16.450;2023-07-02T14:43:53;5.50;;;1.80;;
36817;SDS011;22761;51.542;16.450;2023-07-02T14:46:21;3.90;;;1.60;;
36817;SDS011;22761;51.542;16.450;2023-07-02T14:48:51;2.50;;;1.60;;
36817;SDS011;22761;51.542;16.450;2023-07-02T14:51:19;2.70;;;1.60;;
36817;SDS011;22761;51.542;16.450;2023-07-02T14:53:48;3.60;;;1.80;;
36817;SDS011;22761;51.542;16.450;2023-07-02T14:56:17;2.60;;;2.10;;
36817;SDS011;22761;51.542;16.450;2023-07-02T15:01:15;3.20;;;1.90;;
36817;SDS011;22761;51.542;16.450;2023-07-02T15:03:44;5.50;;;2.10;;